createdAt,value
2022-12-18T00:01:17.653Z,101651.81
2022-12-18T00:03:45.338Z,101659.44
2022-12-18T00:06:13.019Z,101664.44
2022-12-18T00:08:39.619Z,101669.59
2022-12-18T00:11:14.453Z,101666.50
2022-12-18T00:13:41.427Z,101670.81
2022-12-18T00:16:15.638Z,101673.09
2022-12-18T00:18:43.315Z,101669.38
2022-12-18T00:21:11.909Z,101685.88
2022-12-18T00:23:39.803Z,101690.16
2022-12-18T00:26:21.555Z,101686.16
2022-12-18T00:28:48.898Z,101688.16
2022-12-18T00:31:18.178Z,101694.75
2022-12-18T00:33:45.391Z,101690.81
2022-12-18T00:36:15.376Z,101705.53
2022-12-18T00:38:43.781Z,101698.38
2022-12-18T00:41:12.392Z,101704.88
2022-12-18T00:43:40.024Z,101706.00
2022-12-18T00:46:07.594Z,101718.31
2022-12-18T00:48:34.160Z,101708.41
2022-12-18T00:51:00.740Z,101715.75
2022-12-18T00:53:27.232Z,101719.34
2022-12-18T00:55:53.739Z,101719.19
2022-12-18T00:58:20.224Z,101725.19
2022-12-18T01:00:46.890Z,101726.81
2022-12-18T01:03:14.972Z,101735.50
2022-12-18T01:05:42.920Z,101735.56
2022-12-18T01:08:09.650Z,101736.34
2022-12-18T01:10:36.217Z,101738.72
2022-12-18T01:13:03.100Z,101729.75
2022-12-18T01:15:29.755Z,101733.66
2022-12-18T01:17:56.301Z,101732.72
2022-12-18T01:20:22.758Z,101741.03
2022-12-18T01:22:49.327Z,101740.16
2022-12-18T01:25:16.109Z,101746.09
2022-12-18T01:27:42.678Z,101748.94
2022-12-18T01:30:09.617Z,101754.28
2022-12-18T01:32:36.168Z,101762.88
2022-12-18T01:35:03.116Z,101766.88
2022-12-18T01:37:29.698Z,101769.38
2022-12-18T01:39:56.613Z,101774.44
2022-12-18T01:42:23.097Z,101781.78
2022-12-18T01:45:03.209Z,101785.63
2022-12-18T01:47:46.489Z,101792.06
2022-12-18T01:50:17.469Z,101797.34
2022-12-18T01:52:47.694Z,101791.09
2022-12-18T01:55:17.862Z,101792.66
2022-12-18T01:57:44.653Z,101797.41
2022-12-18T02:00:15.890Z,101806.03
2022-12-18T02:02:44.940Z,101803.63
2022-12-18T02:05:13.787Z,101803.13
2022-12-18T02:07:55.313Z,101807.84
2022-12-18T02:10:33.644Z,101818.78
2022-12-18T02:13:08.057Z,101829.28
2022-12-18T02:16:04.910Z,101839.78
2022-12-18T02:18:41.616Z,101848.13
2022-12-18T02:21:10.787Z,101839.34
2022-12-18T02:23:52.811Z,101842.34
2022-12-18T02:26:29.993Z,101839.84
2022-12-18T02:29:04.358Z,101834.81
2022-12-18T02:31:35.915Z,101850.66
2022-12-18T02:34:06.281Z,101850.03
2022-12-18T02:36:34.253Z,101844.97
2022-12-18T02:39:02.744Z,101851.44
2022-12-18T02:41:30.341Z,101858.81
2022-12-18T02:43:59.503Z,101857.34
2022-12-18T02:46:34.149Z,101860.34
2022-12-18T02:49:35.634Z,101861.53
2022-12-18T02:52:29.446Z,101870.81
2022-12-18T02:55:16.938Z,101875.97
2022-12-18T02:57:49.702Z,101881.06
2022-12-18T03:00:24.207Z,101888.16
2022-12-18T03:03:40.298Z,101893.38
2022-12-18T03:06:24.771Z,101899.00
2022-12-18T03:08:57.378Z,101902.28
2022-12-18T03:11:48.086Z,101903.94
2022-12-18T03:14:17.700Z,101902.97
2022-12-18T03:16:46.496Z,101913.78
2022-12-18T03:19:17.988Z,101915.34
2022-12-18T03:21:48.422Z,101912.81
2022-12-18T03:24:16.338Z,101909.78
2022-12-18T03:26:47.726Z,101917.56
2022-12-18T03:29:23.759Z,101917.66
2022-12-18T03:32:00.281Z,101921.78
2022-12-18T03:34:32.419Z,101934.63
2022-12-18T03:36:59.654Z,101939.44
2022-12-18T03:39:27.130Z,101939.66
2022-12-18T03:42:24.399Z,101941.19
2022-12-18T03:45:02.834Z,101950.34
2022-12-18T03:47:37.552Z,101952.91
2022-12-18T03:50:13.786Z,101947.69
2022-12-18T03:52:50.001Z,101946.66
2022-12-18T03:55:18.427Z,101945.28
2022-12-18T03:57:46.906Z,101953.53
2022-12-18T04:00:15.822Z,101959.00
2022-12-18T04:02:49.911Z,101964.75
2022-12-18T04:05:18.110Z,101969.44
2022-12-18T04:07:47.938Z,101969.81
2022-12-18T04:10:16.876Z,101963.22
2022-12-18T04:12:43.892Z,101963.94
2022-12-18T04:15:12.135Z,101964.97
2022-12-18T04:17:39.996Z,101982.78
2022-12-18T04:20:07.038Z,101986.91
2022-12-18T04:22:33.501Z,101988.31
2022-12-18T04:25:00.006Z,101991.69
2022-12-18T04:27:26.555Z,101987.97
2022-12-18T04:29:53.155Z,101999.34
2022-12-18T04:32:19.697Z,102004.16
2022-12-18T04:34:46.302Z,102003.28
2022-12-18T04:37:12.859Z,102007.50
2022-12-18T04:39:39.388Z,102001.06
2022-12-18T04:42:06.025Z,102006.69
2022-12-18T04:44:32.546Z,102011.50
2022-12-18T04:46:59.164Z,102017.09
2022-12-18T04:49:25.748Z,102023.53
2022-12-18T04:51:52.720Z,102031.13
2022-12-18T04:54:22.275Z,102031.91
2022-12-18T04:56:49.779Z,102033.88
2022-12-18T04:59:16.230Z,102030.34
2022-12-18T05:01:42.882Z,102039.66
2022-12-18T05:04:09.702Z,102039.50
2022-12-18T05:06:36.403Z,102042.75
2022-12-18T05:09:03.073Z,102044.06
2022-12-18T05:11:29.551Z,102042.91
2022-12-18T05:13:59.119Z,102047.63
2022-12-18T05:16:25.723Z,102055.56
2022-12-18T05:18:52.330Z,102061.47
2022-12-18T05:21:18.822Z,102068.72
2022-12-18T05:23:45.324Z,102071.34
2022-12-18T05:26:16.911Z,102081.13
2022-12-18T05:28:43.701Z,102080.69
2022-12-18T05:31:10.764Z,102081.56
2022-12-18T05:33:37.659Z,102080.63
2022-12-18T05:36:07.753Z,102091.56
2022-12-18T05:38:36.328Z,102092.22
2022-12-18T05:41:03.582Z,102093.06
2022-12-18T05:43:30.228Z,102095.66
2022-12-18T05:45:57.899Z,102098.31
2022-12-18T05:48:24.571Z,102105.59
2022-12-18T05:50:51.929Z,102108.09
2022-12-18T05:53:20.714Z,102111.22
2022-12-18T05:55:47.820Z,102109.66
2022-12-18T05:58:15.382Z,102111.13
2022-12-18T06:00:47.045Z,102114.28
2022-12-18T06:03:14.588Z,102115.81
2022-12-18T06:05:44.250Z,102123.84
2022-12-18T06:08:11.643Z,102124.19
2022-12-18T06:10:38.807Z,102125.06
2022-12-18T06:13:06.317Z,102130.28
2022-12-18T06:15:33.135Z,102132.28
2022-12-18T06:18:01.979Z,102132.69
2022-12-18T06:20:33.603Z,102137.44
2022-12-18T06:23:00.685Z,102146.13
2022-12-18T06:25:27.282Z,102142.81
2022-12-18T06:27:53.854Z,102158.19
2022-12-18T06:30:20.494Z,102155.00
2022-12-18T06:32:53.068Z,102161.66
2022-12-18T06:35:22.982Z,102165.19
2022-12-18T06:37:49.520Z,102169.50
2022-12-18T06:40:16.019Z,102178.56
2022-12-18T06:42:42.609Z,102181.34
2022-12-18T06:45:09.773Z,102194.94
2022-12-18T06:47:36.265Z,102190.38
2022-12-18T06:50:03.474Z,102196.44
2022-12-18T06:52:33.147Z,102202.50
2022-12-18T06:54:59.700Z,102196.75
2022-12-18T06:57:26.311Z,102206.34
2022-12-18T06:59:52.895Z,102200.59
2022-12-18T07:02:19.484Z,102202.88
2022-12-18T07:04:46.113Z,102206.47
2022-12-18T07:07:12.613Z,102210.31
2022-12-18T07:09:39.123Z,102213.22
2022-12-18T07:12:06.126Z,102215.66
2022-12-18T07:14:32.606Z,102228.50
2022-12-18T07:16:59.169Z,102226.63
2022-12-18T07:19:26.774Z,102227.44
2022-12-18T07:21:53.255Z,102236.44
2022-12-18T07:24:19.915Z,102239.34
2022-12-18T07:26:47.761Z,102237.59
2022-12-18T07:29:14.347Z,102235.56
2022-12-18T07:31:40.888Z,102240.91
2022-12-18T07:34:11.492Z,102242.72
2022-12-18T07:36:38.372Z,102254.94
2022-12-18T07:39:04.974Z,102263.50
2022-12-18T07:41:31.644Z,102253.59
2022-12-18T07:43:58.214Z,102264.84
2022-12-18T07:46:24.759Z,102267.91
2022-12-18T07:48:51.363Z,102280.16
2022-12-18T07:51:18.900Z,102274.22
2022-12-18T07:53:45.571Z,102282.84
2022-12-18T07:56:30.377Z,102289.69
2022-12-18T07:58:58.086Z,102293.38
2022-12-18T08:01:24.966Z,102288.03
2022-12-18T08:03:52.202Z,102295.28
2022-12-18T08:06:19.176Z,102288.03
2022-12-18T08:08:45.809Z,102299.13
2022-12-18T08:11:12.307Z,102298.75
2022-12-18T08:13:39.137Z,102304.94
2022-12-18T08:16:08.216Z,102291.28
2022-12-18T08:18:37.051Z,102312.19
2022-12-18T08:21:18.301Z,102312.38
2022-12-18T08:23:46.265Z,102314.88
2022-12-18T08:26:13.534Z,102316.91
2022-12-18T08:28:40.887Z,102326.72
2022-12-18T08:31:08.184Z,102330.78
2022-12-18T08:33:35.566Z,102339.34
2022-12-18T08:36:03.095Z,102339.94
2022-12-18T08:38:29.607Z,102344.00
2022-12-18T08:41:04.029Z,102346.81
2022-12-18T08:43:49.326Z,102339.19
2022-12-18T08:46:20.165Z,102343.63
2022-12-18T08:48:47.361Z,102350.34
2022-12-18T08:51:14.483Z,102352.16
2022-12-18T08:53:41.540Z,102349.03
2022-12-18T08:56:08.648Z,102358.47
2022-12-18T08:58:35.179Z,102357.66
2022-12-18T09:01:07.062Z,102360.66
2022-12-18T09:03:34.105Z,102361.09
2022-12-18T09:06:00.659Z,102367.28
2022-12-18T09:08:27.959Z,102367.06
2022-12-18T09:10:54.730Z,102367.81
2022-12-18T09:13:21.896Z,102360.16
2022-12-18T09:15:50.785Z,102368.19
2022-12-18T09:18:20.027Z,102374.22
2022-12-18T09:20:47.037Z,102380.63
2022-12-18T09:23:13.709Z,102377.28
2022-12-18T09:25:40.590Z,102374.50
2022-12-18T09:28:11.949Z,102374.84
2022-12-18T09:30:44.152Z,102369.41
2022-12-18T09:33:10.930Z,102372.50
2022-12-18T09:35:42.279Z,102373.31
2022-12-18T09:38:11.157Z,102369.78
2022-12-18T09:40:43.937Z,102375.47
2022-12-18T09:43:38.398Z,102383.84
2022-12-18T09:46:10.099Z,102376.94
2022-12-18T09:48:42.815Z,102386.94
2022-12-18T09:51:20.667Z,102384.16
2022-12-18T09:53:55.013Z,102384.31
2022-12-18T09:56:24.038Z,102392.00
2022-12-18T09:58:59.461Z,102372.47
2022-12-18T10:01:35.468Z,102387.97
2022-12-18T10:04:09.880Z,102397.72
2022-12-18T10:06:53.773Z,102395.13
2022-12-18T10:09:31.074Z,102406.06
2022-12-18T10:12:30.705Z,102406.53
2022-12-18T10:15:28.749Z,102409.38
2022-12-18T10:18:21.886Z,102409.16
2022-12-18T10:21:04.807Z,102407.88
2022-12-18T10:23:46.575Z,102415.56
2022-12-18T10:26:14.758Z,102414.03
2022-12-18T10:28:43.105Z,102407.13
2022-12-18T10:31:19.576Z,102405.13
2022-12-18T10:33:46.190Z,102396.81
2022-12-18T10:36:13.206Z,102396.34
2022-12-18T10:38:40.115Z,102392.34
2022-12-18T10:41:19.131Z,102403.81
2022-12-18T10:43:48.793Z,102400.72
2022-12-18T10:46:20.765Z,102394.06
2022-12-18T10:48:58.666Z,102394.50
2022-12-18T10:51:31.728Z,102390.44
2022-12-18T10:54:24.958Z,102405.38
2022-12-18T10:56:51.446Z,102405.47
2022-12-18T10:59:19.000Z,102405.34
2022-12-18T11:01:52.835Z,102397.16
2022-12-18T11:04:28.936Z,102399.44
2022-12-18T11:07:05.879Z,102396.19
2022-12-18T11:09:38.177Z,102404.34
2022-12-18T11:12:09.347Z,102408.13
2022-12-18T11:14:58.699Z,102412.91
2022-12-18T11:17:36.921Z,102397.97
2022-12-18T11:20:20.361Z,102406.50
2022-12-18T11:22:58.397Z,102408.75
2022-12-18T11:25:34.016Z,102413.84
2022-12-18T11:28:26.023Z,102411.78
2022-12-18T11:31:16.334Z,102413.31
2022-12-18T11:34:26.974Z,102418.66
2022-12-18T11:36:45.249Z,102413.16
2022-12-18T11:39:26.149Z,102410.38
2022-12-18T11:42:21.059Z,102411.88
2022-12-18T11:44:54.876Z,102416.25
2022-12-18T11:47:40.264Z,102417.31
2022-12-18T11:50:33.815Z,102413.50
2022-12-18T11:53:05.620Z,102423.34
2022-12-18T11:56:07.309Z,102426.66
2022-12-18T11:58:42.834Z,102418.50
2022-12-18T12:01:28.361Z,102432.44
2022-12-18T12:03:57.634Z,102427.69
2022-12-18T12:06:44.643Z,102428.84
2022-12-18T12:09:35.064Z,102413.84
2022-12-18T12:12:07.448Z,102420.13
2022-12-18T12:14:56.380Z,102419.53
2022-12-18T12:17:49.202Z,102416.47
2022-12-18T12:20:38.736Z,102415.63
2022-12-18T12:23:11.224Z,102429.06
2022-12-18T12:26:01.730Z,102418.50
2022-12-18T12:29:15.483Z,102426.13
2022-12-18T12:31:55.038Z,102440.56
2022-12-18T12:34:32.440Z,102446.16
2022-12-18T12:37:14.168Z,102445.66
2022-12-18T12:39:43.278Z,102448.84
2022-12-18T12:42:42.035Z,102447.06
2022-12-18T12:45:34.851Z,102455.13
2022-12-18T12:48:03.438Z,102448.59
2022-12-18T12:50:35.186Z,102454.53
2022-12-18T12:53:07.065Z,102449.47
2022-12-18T12:55:33.789Z,102469.56
2022-12-18T12:58:09.479Z,102472.00
2022-12-18T13:00:52.240Z,102468.91
2022-12-18T13:03:32.772Z,102478.69
2022-12-18T13:06:14.201Z,102484.53
2022-12-18T13:09:01.474Z,102485.50
2022-12-18T13:11:59.820Z,102492.13
2022-12-18T13:14:33.883Z,102503.22
2022-12-18T13:17:26.228Z,102493.94
2022-12-18T13:20:05.589Z,102497.75
2022-12-18T13:22:49.989Z,102489.81
2022-12-18T13:25:31.840Z,102496.78
2022-12-18T13:28:10.003Z,102504.91
2022-12-18T13:30:36.472Z,102501.72
2022-12-18T13:33:15.576Z,102509.66
2022-12-18T13:36:02.434Z,102518.25
2022-12-18T13:38:37.070Z,102514.25
2022-12-18T13:41:23.612Z,102521.50
2022-12-18T13:43:52.475Z,102517.56
2022-12-18T13:46:29.413Z,102521.47
2022-12-18T13:49:14.148Z,102526.47
2022-12-18T13:51:52.692Z,102533.72
2022-12-18T13:54:38.631Z,102525.50
2022-12-18T13:57:07.812Z,102529.50
2022-12-18T13:59:35.377Z,102536.16
2022-12-18T14:02:27.404Z,102527.59
2022-12-18T14:04:55.228Z,102528.75
2022-12-18T14:07:27.225Z,102536.31
2022-12-18T14:12:57.737Z,102535.81
2022-12-18T14:15:27.354Z,102540.94
2022-12-18T14:17:56.866Z,102538.53
2022-12-18T14:20:25.155Z,102534.09
2022-12-18T14:22:51.785Z,102528.59
2022-12-18T14:25:23.147Z,102539.13
2022-12-18T14:28:16.242Z,102537.78
2022-12-18T14:30:45.259Z,102533.63
2022-12-18T14:33:19.614Z,102526.28
2022-12-18T14:35:56.305Z,102527.81
2022-12-18T14:38:28.316Z,102531.66
2022-12-18T14:41:00.154Z,102541.09
2022-12-18T14:43:33.217Z,102559.91
2022-12-18T14:46:00.458Z,102558.47
2022-12-18T14:48:40.001Z,102561.00
2022-12-18T14:51:17.770Z,102556.09
2022-12-18T14:53:53.622Z,102557.03
2022-12-18T14:56:25.076Z,102563.16
2022-12-18T14:59:00.367Z,102576.06
2022-12-18T15:01:30.496Z,102578.59
2022-12-18T15:03:58.597Z,102575.69
2022-12-18T15:06:30.253Z,102584.81
2022-12-18T15:08:57.526Z,102581.59
2022-12-18T15:11:33.154Z,102586.41
2022-12-18T15:14:01.216Z,102589.31
2022-12-18T15:16:27.948Z,102586.72
2022-12-18T15:18:54.698Z,102588.50
2022-12-18T15:21:22.337Z,102594.00
2022-12-18T15:23:52.228Z,102596.44
2022-12-18T15:26:22.008Z,102590.25
2022-12-18T15:28:51.198Z,102591.53
2022-12-18T15:31:18.052Z,102593.41
2022-12-18T15:34:00.734Z,102600.78
2022-12-18T15:36:37.441Z,102595.16
2022-12-18T15:39:07.166Z,102601.66
2022-12-18T15:41:37.468Z,102601.41
2022-12-18T15:44:20.735Z,102597.94
2022-12-18T15:46:47.330Z,102602.88
2022-12-18T15:49:13.847Z,102598.63
2022-12-18T15:51:40.578Z,102600.06
2022-12-18T15:54:12.859Z,102600.66
2022-12-18T15:56:57.938Z,102597.41
2022-12-18T15:59:26.647Z,102604.69
2022-12-18T16:01:56.816Z,102608.88
2022-12-18T16:04:24.656Z,102609.69
2022-12-18T16:09:39.760Z,102607.88
2022-12-18T16:12:07.828Z,102613.22
2022-12-18T16:14:34.304Z,102614.09
2022-12-18T16:17:03.666Z,102618.06
2022-12-18T16:19:31.137Z,102614.66
2022-12-18T16:21:58.989Z,102609.25
2022-12-18T16:24:31.104Z,102608.97
2022-12-18T16:27:00.340Z,102601.78
2022-12-18T16:29:28.724Z,102612.13
2022-12-18T16:32:00.634Z,102597.97
2022-12-18T16:34:35.484Z,102603.47
2022-12-18T16:37:08.792Z,102602.56
2022-12-18T16:39:36.398Z,102598.91
2022-12-18T16:42:06.283Z,102600.53
2022-12-18T16:44:34.545Z,102603.19
2022-12-18T16:47:03.277Z,102607.59
2022-12-18T16:49:30.407Z,102612.13
2022-12-18T16:51:56.981Z,102616.69
2022-12-18T16:54:23.531Z,102627.94
2022-12-18T16:56:51.659Z,102637.47
2022-12-18T16:59:18.709Z,102632.59
2022-12-18T17:01:45.332Z,102630.41
2022-12-18T17:04:12.008Z,102632.41
2022-12-18T17:06:44.251Z,102630.66
2022-12-18T17:09:16.371Z,102630.94
2022-12-18T17:11:43.683Z,102638.84
2022-12-18T17:14:13.682Z,102645.00
2022-12-18T17:16:40.285Z,102641.78
2022-12-18T17:19:09.805Z,102639.22
2022-12-18T17:21:40.173Z,102636.75
2022-12-18T17:24:07.834Z,102635.19
2022-12-18T17:26:34.493Z,102645.59
2022-12-18T17:29:01.107Z,102649.63
2022-12-18T17:31:29.770Z,102640.53
2022-12-18T17:33:57.068Z,102639.66
2022-12-18T17:36:24.802Z,102645.69
2022-12-18T17:38:53.231Z,102639.47
2022-12-18T17:41:20.287Z,102645.91
2022-12-18T17:43:58.148Z,102638.25
2022-12-18T17:46:25.975Z,102641.41
2022-12-18T17:48:54.941Z,102644.00
2022-12-18T17:51:21.566Z,102647.44
2022-12-18T17:53:48.315Z,102656.13
2022-12-18T17:56:17.344Z,102664.31
2022-12-18T17:58:44.537Z,102648.91
2022-12-18T18:01:15.166Z,102650.34
2022-12-18T18:03:43.791Z,102652.22
2022-12-18T18:06:11.594Z,102661.91
2022-12-18T18:08:38.123Z,102663.72
2022-12-18T18:11:30.189Z,102658.13
2022-12-18T18:14:02.755Z,102654.16
2022-12-18T18:16:37.739Z,102649.84
2022-12-18T18:19:07.095Z,102652.88
2022-12-18T18:21:37.730Z,102644.06
2022-12-18T18:24:05.866Z,102653.88
2022-12-18T18:26:33.501Z,102660.03
2022-12-18T18:29:01.968Z,102664.44
2022-12-18T18:31:31.394Z,102655.38
2022-12-18T18:33:58.690Z,102658.78
2022-12-18T18:36:25.570Z,102647.75
2022-12-18T18:38:52.701Z,102655.59
2022-12-18T18:41:19.991Z,102648.91
2022-12-18T18:43:46.641Z,102654.44
2022-12-18T18:46:15.482Z,102652.53
2022-12-18T18:48:43.759Z,102656.75
2022-12-18T18:51:20.651Z,102658.28
2022-12-18T18:53:50.417Z,102656.78
2022-12-18T18:59:08.771Z,102638.94
2022-12-18T19:01:35.424Z,102640.78
2022-12-18T19:04:05.290Z,102653.44
2022-12-18T19:06:31.943Z,102661.22
2022-12-18T19:09:02.567Z,102660.16
2022-12-18T19:11:47.402Z,102658.09
2022-12-18T19:14:15.784Z,102645.25
2022-12-18T19:16:43.468Z,102648.25
2022-12-18T19:19:10.906Z,102654.59
2022-12-18T19:21:38.330Z,102658.97
2022-12-18T19:24:05.924Z,102647.75
2022-12-18T19:26:32.632Z,102660.38
2022-12-18T19:29:06.931Z,102687.75
2022-12-18T19:31:36.347Z,102686.16
2022-12-18T19:34:05.371Z,102684.66
2022-12-18T19:36:32.915Z,102683.31
2022-12-18T19:39:01.306Z,102695.88
2022-12-18T19:41:32.839Z,102686.38
2022-12-18T19:43:59.631Z,102683.91
2022-12-18T19:46:26.249Z,102694.31
2022-12-18T19:48:53.701Z,102694.00
2022-12-18T19:51:23.817Z,102683.25
2022-12-18T19:53:56.452Z,102676.47
2022-12-18T19:56:26.903Z,102683.84
2022-12-18T19:58:54.871Z,102684.44
2022-12-18T20:01:23.956Z,102680.47
2022-12-18T20:03:52.547Z,102679.00
2022-12-18T20:06:26.148Z,102691.22
2022-12-18T20:08:59.976Z,102687.50
2022-12-18T20:11:28.314Z,102687.19
2022-12-18T20:13:54.959Z,102671.28
2022-12-18T20:16:21.678Z,102678.31
2022-12-18T20:18:49.230Z,102675.53
2022-12-18T20:21:16.083Z,102690.88
2022-12-18T20:23:43.321Z,102685.72
2022-12-18T20:26:10.648Z,102693.19
2022-12-18T20:28:37.344Z,102695.78
2022-12-18T20:31:10.365Z,102687.84
2022-12-18T20:33:40.416Z,102687.50
2022-12-18T20:36:14.237Z,102689.81
2022-12-18T20:38:42.126Z,102691.50
2022-12-18T20:41:17.344Z,102697.50
2022-12-18T20:43:45.060Z,102714.09
2022-12-18T20:46:14.405Z,102714.09
2022-12-18T20:48:42.206Z,102718.75
2022-12-18T20:51:14.641Z,102713.31
2022-12-18T20:53:42.069Z,102712.97
2022-12-18T20:56:21.290Z,102704.78
2022-12-18T20:58:49.745Z,102713.13
2022-12-18T21:01:18.902Z,102723.09
2022-12-18T21:03:46.586Z,102731.47
2022-12-18T21:06:15.439Z,102724.59
2022-12-18T21:08:42.486Z,102729.03
2022-12-18T21:11:40.875Z,102725.50
2022-12-18T21:14:19.591Z,102715.34
2022-12-18T21:16:47.556Z,102723.41
2022-12-18T21:19:20.630Z,102719.06
2022-12-18T21:21:47.487Z,102719.91
2022-12-18T21:24:14.412Z,102715.91
2022-12-18T21:26:46.090Z,102706.84
2022-12-18T21:29:22.689Z,102704.19
2022-12-18T21:31:50.613Z,102692.41
2022-12-18T21:34:20.412Z,102690.09
2022-12-18T21:36:47.761Z,102685.56
2022-12-18T21:39:16.050Z,102681.59
2022-12-18T21:42:01.593Z,102677.09
2022-12-18T21:44:28.847Z,102675.97
2022-12-18T21:47:00.581Z,102671.16
2022-12-18T21:49:33.444Z,102672.13
2022-12-18T21:52:01.282Z,102662.50
2022-12-18T21:54:29.143Z,102653.16
2022-12-18T21:56:58.373Z,102648.47
2022-12-18T21:59:36.044Z,102644.81
2022-12-18T22:02:11.598Z,102638.69
2022-12-18T22:04:38.228Z,102632.31
2022-12-18T22:07:06.128Z,102616.97
2022-12-18T22:09:32.698Z,102610.47
2022-12-18T22:11:59.608Z,102605.59
2022-12-18T22:14:27.074Z,102612.41
2022-12-18T22:16:55.927Z,102606.91
2022-12-18T22:19:22.419Z,102615.72
2022-12-18T22:21:49.498Z,102601.59
2022-12-18T22:24:18.814Z,102603.53
2022-12-18T22:26:46.438Z,102615.09
2022-12-18T22:29:37.236Z,102618.34
2022-12-18T22:32:05.195Z,102614.69
2022-12-18T22:34:36.478Z,102611.25
2022-12-18T22:37:04.862Z,102605.81
2022-12-18T22:39:31.906Z,102611.94
2022-12-18T22:41:58.954Z,102611.63
2022-12-18T22:44:25.690Z,102603.13
2022-12-18T22:47:05.532Z,102599.41
2022-12-18T22:49:33.941Z,102597.13
2022-12-18T22:52:02.176Z,102593.94
2022-12-18T22:54:28.688Z,102609.94
2022-12-18T22:56:55.643Z,102606.91
2022-12-18T22:59:23.156Z,102615.22
2022-12-18T23:01:52.928Z,102605.81
2022-12-18T23:04:29.069Z,102598.19
2022-12-18T23:07:03.656Z,102594.91
2022-12-18T23:09:30.323Z,102597.03
2022-12-18T23:11:56.843Z,102592.09
2022-12-18T23:14:23.373Z,102597.72
2022-12-18T23:16:49.977Z,102599.47
2022-12-18T23:19:18.896Z,102601.41
2022-12-18T23:21:45.413Z,102588.53
2022-12-18T23:24:12.078Z,102588.44
2022-12-18T23:26:38.974Z,102594.72
2022-12-18T23:29:05.603Z,102595.47
2022-12-18T23:31:34.863Z,102592.13
2022-12-18T23:34:03.006Z,102602.84
2022-12-18T23:36:30.542Z,102589.66
2022-12-18T23:39:01.318Z,102587.66
2022-12-18T23:41:32.697Z,102596.81
2022-12-18T23:44:00.369Z,102586.81
2022-12-18T23:46:29.649Z,102590.19
2022-12-18T23:48:57.840Z,102585.84
2022-12-18T23:51:25.788Z,102595.66
2022-12-18T23:53:53.741Z,102589.78
2022-12-18T23:56:20.268Z,102581.28
2022-12-18T23:58:48.913Z,102585.38
